Buoy 48769

sailwx.info

Track history (hours):
 
Tides and Currents Weather Stations Pressure Air Temp Water Temp Dewpoint Dewpoint Depression Visibility Wind Speed Wind Dir Waves Ship Positions

Drifting buoy 48769

Last reported at 2018-Jun-11 12:00 UTC. Time now 2018-Jun-19 14:25 UTC.
Position N 70°32' W 102°12'.
Warning: this ship's position is 8 days out of date.

Barometer 1007.3 mb
Air temperature -0.3 ° C

Date/timePositionNaut miles runAvg speedWind from/ knotsBaromVisibWave heightAir tempDewpointWater temp
2018-Jun-11 12:00N 70°32' W 102°12'0 0.0 1007.3 -0.3
2018-Jun-10 22:00N 70°32' W 102°12'0 0.0 1011.7 -0.3
2018-Jun-10 17:00N 70°32' W 102°12'0 0.0 1011.1 -0.5
2018-Jun-10 01:00N 70°32' W 102°12'0 0.0 1009.3 -1.0
2018-Jun-09 21:00N 70°32' W 102°12'0 0.0 1009.6 -1.3
2018-Jun-09 15:01N 70°32' W 102°12'0 0.0 1012.5
2018-Jun-09 15:00N 70°32' W 102°12'0 0.0 1012.5 -1.4
2018-Jun-09 13:00N 70°32' W 102°12'0 0.0 1013.1 -1.4
2018-Jun-09 11:01N 70°32' W 102°12'0 0.0 1013.5
2018-Jun-09 11:00N 70°32' W 102°12'0 0.0 1013.5 -1.3
2018-Jun-09 09:01N 70°32' W 102°12'0 0.0 1014.3
2018-Jun-09 09:00N 70°32' W 102°12'0 0.0 1014.3 -1.3
2018-Jun-09 08:01N 70°32' W 102°12'0 0.0 1014.2
2018-Jun-09 08:00N 70°32' W 102°12'0 0.0 1014.2 -1.3
2018-Jun-09 06:00N 70°32' W 102°12'0 0.0 1014.5 -1.3
2018-Jun-09 03:01N 70°32' W 102°12'0 0.0 1015.2
2018-Jun-09 03:00N 70°32' W 102°12'0 0.0 1015.2 -1.4
2018-Jun-09 02:00N 70°32' W 102°12'0 0.0 1015.3 -1.5
2018-Jun-08 22:01N 70°32' W 102°12'0 0.0 1016.2
2018-Jun-08 22:00N 70°32' W 102°12'0 0.0 1016.2 -2.1
2018-Jun-08 21:00N 70°32' W 102°12'0 0.0 1016.3 -2.6
2018-Jun-08 16:00N 70°32' W 102°12'0 0.0 1016.9 -3.0
2018-Jun-08 12:01N 70°32' W 102°12'0 0.0 1017.7
2018-Jun-08 12:00N 70°32' W 102°12'0 0.0 1017.7 -3.0
2018-Jun-08 09:00N 70°32' W 102°12'0 0.0 1017.9 -2.9
2018-Jun-08 07:00N 70°32' W 102°12'0 0.0 1018.0 -2.8
2018-Jun-07 20:00N 70°32' W 102°12'0 0.0 1018.1 -3.4
2018-Jun-07 17:00N 70°32' W 102°12'0 0.0 1018.0 -3.6
2018-Jun-07 16:00N 70°32' W 102°12'0 0.0 1018.0 -3.6
2018-Jun-07 12:00N 70°32' W 102°12'0 0.0 1018.3 -3.8
2018-Jun-07 08:00N 70°32' W 102°12'0 0.0 1018.6 -3.8
2018-Jun-07 06:01N 70°32' W 102°12'0 0.0 1018.7
2018-Jun-07 06:00N 70°32' W 102°12'0 0.0 1018.7 -3.8
2018-Jun-06 21:00N 70°32' W 102°12'0 0.0 1020.1 -3.7
2018-Jun-06 15:01N 70°32' W 102°12'0 0.0 1020.8
2018-Jun-06 15:00N 70°32' W 102°12'0 0.0 1020.8 -3.9
2018-Jun-06 13:00N 70°32' W 102°12'0 0.0 1021.1 -4.0
2018-Jun-06 11:01N 70°32' W 102°12'0 0.0 1021.4
2018-Jun-06 11:00N 70°32' W 102°12'0 0.0 1021.4 -4.1
2018-Jun-06 08:00N 70°32' W 102°12'0 0.0 1022.0 -4.1
2018-Jun-06 07:00N 70°32' W 102°12'0 0.0 1022.2
2018-Jun-06 06:00N 70°32' W 102°12'0 0.0 1022.4 -4.1
2018-Jun-06 04:01N 70°32' W 102°12'0 0.0 1022.6
2018-Jun-06 04:00N 70°32' W 102°12'0 0.0 1022.6 -4.1
2018-Jun-06 02:00N 70°32' W 102°12'0 0.0 1023.2 -4.1
2018-Jun-06 00:00N 70°32' W 102°12'0 0.0 1023.8 -4.0
2018-Jun-05 23:00N 70°32' W 102°12'0 0.0 1024.1 -4.0
2018-Jun-05 22:00N 70°32' W 102°12'0 0.0 1024.3 -4.0
2018-Jun-05 21:00N 70°32' W 102°12'0 0.0 1024.5 -4.0
2018-Jun-05 16:00N 70°32' W 102°12'0 0.0 1026.0 -4.1
2018-Jun-05 12:00N 70°32' W 102°12'0 0.0 1027.1 -4.2
2018-Jun-05 11:00N 70°32' W 102°12'0 0.0 1027.3 -4.2
2018-Jun-05 10:01N 70°32' W 102°12'0 0.0 1027.7
2018-Jun-05 10:00N 70°32' W 102°12'0 0.0 1027.7 -4.2
2018-Jun-05 09:00N 70°32' W 102°12'0 0.0 1027.9 -4.2
2018-Jun-05 07:00N 70°32' W 102°12'0 0.0 1028.6 -4.2
2018-Jun-05 03:00N 70°32' W 102°12'0 0.0 1029.4
2018-Jun-04 22:00N 70°32' W 102°12'0 0.0 1031.0 -4.1
2018-Jun-04 19:01N 70°32' W 102°12'0 0.0 1031.9
2018-Jun-04 19:00N 70°32' W 102°12'0 0.0 1031.9 -4.1
2018-Jun-04 17:00N 70°32' W 102°12'0 0.0 1032.2 -4.1
2018-Jun-04 16:00N 70°32' W 102°12'0 0.0 1032.3 -4.2
2018-Jun-04 14:00N 70°32' W 102°12'0 0.0 1033.1 -4.2
2018-Jun-04 06:00N 70°32' W 102°12'0 0.0 1033.6 -4.3
2018-Jun-04 01:00N 70°32' W 102°12'0 0.0 1034.2 -4.2
2018-Jun-03 23:00N 70°32' W 102°12'0 0.0 1034.1 -4.1
2018-Jun-03 18:00N 70°32' W 102°12'0 0.0 1034.9 -4.2
2018-Jun-03 17:00N 70°32' W 102°12'0 0.0 1034.8 -4.2
2018-Jun-03 13:00N 70°32' W 102°12'0 0.0 1034.9 -4.4
2018-Jun-03 07:00N 70°32' W 102°12'0 0.0 1034.7 -4.4
2018-Jun-03 06:00N 70°32' W 102°12'0 0.0 1034.6 -4.4
2018-Jun-03 02:00N 70°32' W 102°12'0 0.0 1034.3 -4.3
2018-Jun-03 00:00N 70°32' W 102°12'0 0.0 1034.3 -4.3
2018-Jun-02 18:00N 70°32' W 102°12'0 0.0 1033.3 -4.4
2018-Jun-02 17:00N 70°32' W 102°12'0 0.0 1033.2 -4.4
2018-Jun-02 16:00N 70°32' W 102°12'0 0.0 1032.9 -4.4
2018-Jun-02 14:01N 70°32' W 102°12'0 0.0 1032.6
2018-Jun-02 14:00N 70°32' W 102°12'0 0.0 1032.6 -4.5
2018-Jun-02 12:01N 70°32' W 102°12'0 0.0 1031.8
2018-Jun-02 12:00N 70°32' W 102°12'0 0.0 1031.8 -4.5
2018-Jun-02 11:00N 70°32' W 102°12'0 0.0 1031.4 -4.5
2018-Jun-02 09:00N 70°32' W 102°12'0 0.0 1030.9 -4.5
2018-Jun-02 07:00N 70°32' W 102°12'0 0.0 1030.2 -4.5
2018-Jun-02 03:00N 70°32' W 102°12'0 0.0 1028.1 -4.5
2018-Jun-01 23:00N 70°32' W 102°12'0 0.0 1026.9
2018-Jun-01 22:00N 70°32' W 102°12'0 0.0 1026.6 -4.5
2018-Jun-01 17:00N 70°32' W 102°12'0 0.0 1024.1 -4.4
2018-Jun-01 16:00N 70°32' W 102°12'0 0.0 1023.6 -4.4
2018-Jun-01 13:00N 70°32' W 102°12'0 0.0 1022.5 -4.4
2018-Jun-01 12:00N 70°32' W 102°12'   1022.2 -4.4
Track history (hours):
 
Tides and Currents Weather Stations Pressure Air Temp Water Temp Dewpoint Dewpoint Depression Visibility Wind Speed Wind Dir Waves Ship Positions

Drifting buoy 48769

Last reported at 2018-Jun-11 12:00 UTC. Time now 2018-Jun-19 14:25 UTC.
Position N 70°32' W 102°12'.
Warning: this ship's position is 8 days out of date.

Barometer 1007.3 mb
Air temperature -0.3 ° C

Date/timePositionNaut miles runAvg speedWind from/ knotsBaromVisibWave heightAir tempDewpointWater temp
2018-Jun-11 12:00N 70°32' W 102°12'0 0.0 1007.3 -0.3
2018-Jun-10 22:00N 70°32' W 102°12'0 0.0 1011.7 -0.3
2018-Jun-10 17:00N 70°32' W 102°12'0 0.0 1011.1 -0.5
2018-Jun-10 01:00N 70°32' W 102°12'0 0.0 1009.3 -1.0
2018-Jun-09 21:00N 70°32' W 102°12'0 0.0 1009.6 -1.3
2018-Jun-09 15:01N 70°32' W 102°12'0 0.0 1012.5
2018-Jun-09 15:00N 70°32' W 102°12'0 0.0 1012.5 -1.4
2018-Jun-09 13:00N 70°32' W 102°12'0 0.0 1013.1 -1.4
2018-Jun-09 11:01N 70°32' W 102°12'0 0.0 1013.5
2018-Jun-09 11:00N 70°32' W 102°12'0 0.0 1013.5 -1.3
2018-Jun-09 09:01N 70°32' W 102°12'0 0.0 1014.3
2018-Jun-09 09:00N 70°32' W 102°12'0 0.0 1014.3 -1.3
2018-Jun-09 08:01N 70°32' W 102°12'0 0.0 1014.2
2018-Jun-09 08:00N 70°32' W 102°12'0 0.0 1014.2 -1.3
2018-Jun-09 06:00N 70°32' W 102°12'0 0.0 1014.5 -1.3
2018-Jun-09 03:01N 70°32' W 102°12'0 0.0 1015.2
2018-Jun-09 03:00N 70°32' W 102°12'0 0.0 1015.2 -1.4
2018-Jun-09 02:00N 70°32' W 102°12'0 0.0 1015.3 -1.5
2018-Jun-08 22:01N 70°32' W 102°12'0 0.0 1016.2
2018-Jun-08 22:00N 70°32' W 102°12'0 0.0 1016.2 -2.1
2018-Jun-08 21:00N 70°32' W 102°12'0 0.0 1016.3 -2.6
2018-Jun-08 16:00N 70°32' W 102°12'0 0.0 1016.9 -3.0
2018-Jun-08 12:01N 70°32' W 102°12'0 0.0 1017.7
2018-Jun-08 12:00N 70°32' W 102°12'0 0.0 1017.7 -3.0
2018-Jun-08 09:00N 70°32' W 102°12'0 0.0 1017.9 -2.9
2018-Jun-08 07:00N 70°32' W 102°12'0 0.0 1018.0 -2.8
2018-Jun-07 20:00N 70°32' W 102°12'0 0.0 1018.1 -3.4
2018-Jun-07 17:00N 70°32' W 102°12'0 0.0 1018.0 -3.6
2018-Jun-07 16:00N 70°32' W 102°12'0 0.0 1018.0 -3.6
2018-Jun-07 12:00N 70°32' W 102°12'0 0.0 1018.3 -3.8
2018-Jun-07 08:00N 70°32' W 102°12'0 0.0 1018.6 -3.8
2018-Jun-07 06:01N 70°32' W 102°12'0 0.0 1018.7
2018-Jun-07 06:00N 70°32' W 102°12'0 0.0 1018.7 -3.8
2018-Jun-06 21:00N 70°32' W 102°12'0 0.0 1020.1 -3.7
2018-Jun-06 15:01N 70°32' W 102°12'0 0.0 1020.8
2018-Jun-06 15:00N 70°32' W 102°12'0 0.0 1020.8 -3.9
2018-Jun-06 13:00N 70°32' W 102°12'0 0.0 1021.1 -4.0
2018-Jun-06 11:01N 70°32' W 102°12'0 0.0 1021.4
2018-Jun-06 11:00N 70°32' W 102°12'0 0.0 1021.4 -4.1
2018-Jun-06 08:00N 70°32' W 102°12'0 0.0 1022.0 -4.1
2018-Jun-06 07:00N 70°32' W 102°12'0 0.0 1022.2
2018-Jun-06 06:00N 70°32' W 102°12'0 0.0 1022.4 -4.1
2018-Jun-06 04:01N 70°32' W 102°12'0 0.0 1022.6
2018-Jun-06 04:00N 70°32' W 102°12'0 0.0 1022.6 -4.1
2018-Jun-06 02:00N 70°32' W 102°12'0 0.0 1023.2 -4.1
2018-Jun-06 00:00N 70°32' W 102°12'0 0.0 1023.8 -4.0
2018-Jun-05 23:00N 70°32' W 102°12'0 0.0 1024.1 -4.0
2018-Jun-05 22:00N 70°32' W 102°12'0 0.0 1024.3 -4.0
2018-Jun-05 21:00N 70°32' W 102°12'0 0.0 1024.5 -4.0
2018-Jun-05 16:00N 70°32' W 102°12'0 0.0 1026.0 -4.1
2018-Jun-05 12:00N 70°32' W 102°12'0 0.0 1027.1 -4.2
2018-Jun-05 11:00N 70°32' W 102°12'0 0.0 1027.3 -4.2
2018-Jun-05 10:01N 70°32' W 102°12'0 0.0 1027.7
2018-Jun-05 10:00N 70°32' W 102°12'0 0.0 1027.7 -4.2
2018-Jun-05 09:00N 70°32' W 102°12'0 0.0 1027.9 -4.2
2018-Jun-05 07:00N 70°32' W 102°12'0 0.0 1028.6 -4.2
2018-Jun-05 03:00N 70°32' W 102°12'0 0.0 1029.4
2018-Jun-04 22:00N 70°32' W 102°12'0 0.0 1031.0 -4.1
2018-Jun-04 19:01N 70°32' W 102°12'0 0.0 1031.9
2018-Jun-04 19:00N 70°32' W 102°12'0 0.0 1031.9 -4.1
2018-Jun-04 17:00N 70°32' W 102°12'0 0.0 1032.2 -4.1
2018-Jun-04 16:00N 70°32' W 102°12'0 0.0 1032.3 -4.2
2018-Jun-04 14:00N 70°32' W 102°12'0 0.0 1033.1 -4.2
2018-Jun-04 06:00N 70°32' W 102°12'0 0.0 1033.6 -4.3
2018-Jun-04 01:00N 70°32' W 102°12'0 0.0 1034.2 -4.2
2018-Jun-03 23:00N 70°32' W 102°12'0 0.0 1034.1 -4.1
2018-Jun-03 18:00N 70°32' W 102°12'0 0.0 1034.9 -4.2
2018-Jun-03 17:00N 70°32' W 102°12'0 0.0 1034.8 -4.2
2018-Jun-03 13:00N 70°32' W 102°12'0 0.0 1034.9 -4.4
2018-Jun-03 07:00N 70°32' W 102°12'0 0.0 1034.7 -4.4
2018-Jun-03 06:00N 70°32' W 102°12'0 0.0 1034.6 -4.4
2018-Jun-03 02:00N 70°32' W 102°12'0 0.0 1034.3 -4.3
2018-Jun-03 00:00N 70°32' W 102°12'0 0.0 1034.3 -4.3
2018-Jun-02 18:00N 70°32' W 102°12'0 0.0 1033.3 -4.4
2018-Jun-02 17:00N 70°32' W 102°12'0 0.0 1033.2 -4.4
2018-Jun-02 16:00N 70°32' W 102°12'0 0.0 1032.9 -4.4
2018-Jun-02 14:01N 70°32' W 102°12'0 0.0 1032.6
2018-Jun-02 14:00N 70°32' W 102°12'0 0.0 1032.6 -4.5
2018-Jun-02 12:01N 70°32' W 102°12'0 0.0 1031.8
2018-Jun-02 12:00N 70°32' W 102°12'0 0.0 1031.8 -4.5
2018-Jun-02 11:00N 70°32' W 102°12'0 0.0 1031.4 -4.5
2018-Jun-02 09:00N 70°32' W 102°12'0 0.0 1030.9 -4.5
2018-Jun-02 07:00N 70°32' W 102°12'0 0.0 1030.2 -4.5
2018-Jun-02 03:00N 70°32' W 102°12'0 0.0 1028.1 -4.5
2018-Jun-01 23:00N 70°32' W 102°12'0 0.0 1026.9
2018-Jun-01 22:00N 70°32' W 102°12'0 0.0 1026.6 -4.5
2018-Jun-01 17:00N 70°32' W 102°12'0 0.0 1024.1 -4.4
2018-Jun-01 16:00N 70°32' W 102°12'0 0.0 1023.6 -4.4
2018-Jun-01 13:00N 70°32' W 102°12'0 0.0 1022.5 -4.4
2018-Jun-01 12:00N 70°32' W 102°12'   1022.2 -4.4

Dump ship's entire track history